sensor_id;sensor_type;location;lat;lon;timestamp;pressure;altitude;pressure_sealevel;temperature;humidity
63535;BME280;55128;50.230;18.944;2023-08-06T00:02:15;97202.44;;;19.20;100.00
63535;BME280;55128;50.230;18.944;2023-08-06T00:07:15;97193.06;;;19.24;100.00
63535;BME280;55128;50.230;18.944;2023-08-06T00:12:15;97184.63;;;19.19;100.00
63535;BME280;55128;50.230;18.944;2023-08-06T00:17:16;97146.31;;;19.25;100.00
63535;BME280;55128;50.230;18.944;2023-08-06T00:22:16;97102.59;;;19.31;100.00
63535;BME280;55128;50.230;18.944;2023-08-06T00:27:17;97075.88;;;19.30;99.78
63535;BME280;55128;50.230;18.944;2023-08-06T00:32:17;97061.41;;;19.31;99.70
63535;BME280;55128;50.230;18.944;2023-08-06T00:37:17;96989.94;;;19.28;100.00
63535;BME280;55128;50.230;18.944;2023-08-06T00:42:18;96956.63;;;19.21;99.98
63535;BME280;55128;50.230;18.944;2023-08-06T00:47:20;97019.69;;;19.27;100.00
63535;BME280;55128;50.230;18.944;2023-08-06T00:52:21;97055.50;;;19.19;100.00
63535;BME280;55128;50.230;18.944;2023-08-06T00:57:24;97014.97;;;19.37;100.00
63535;BME280;55128;50.230;18.944;2023-08-06T01:02:25;96981.69;;;19.38;99.61
63535;BME280;55128;50.230;18.944;2023-08-06T01:07:41;96971.09;;;19.53;98.85
63535;BME280;55128;50.230;18.944;2023-08-06T01:13:06;96962.69;;;19.48;98.40
63535;BME280;55128;50.230;18.944;2023-08-06T01:18:09;96996.34;;;19.35;100.00
63535;BME280;55128;50.230;18.944;2023-08-06T01:23:10;96991.13;;;19.42;100.00
63535;BME280;55128;50.230;18.944;2023-08-06T01:28:16;96987.91;;;19.38;100.00
63535;BME280;55128;50.230;18.944;2023-08-06T01:33:21;96941.81;;;19.50;98.63
63535;BME280;55128;50.230;18.944;2023-08-06T01:38:22;96928.06;;;19.45;99.06
63535;BME280;55128;50.230;18.944;2023-08-06T01:43:23;96912.56;;;19.38;99.67
63535;BME280;55128;50.230;18.944;2023-08-06T01:48:23;96914.91;;;19.50;99.57
63535;BME280;55128;50.230;18.944;2023-08-06T01:53:23;96912.03;;;19.59;98.75
63535;BME280;55128;50.230;18.944;2023-08-06T01:58:23;96932.56;;;19.69;97.97
63535;BME280;55128;50.230;18.944;2023-08-06T02:03:24;96944.34;;;19.59;97.64
63535;BME280;55128;50.230;18.944;2023-08-06T02:08:24;96937.44;;;19.65;97.69
63535;BME280;55128;50.230;18.944;2023-08-06T02:13:25;96929.38;;;19.65;97.87
63535;BME280;55128;50.230;18.944;2023-08-06T02:18:25;96920.47;;;19.81;97.20
63535;BME280;55128;50.230;18.944;2023-08-06T02:23:26;96916.91;;;19.89;96.70
63535;BME280;55128;50.230;18.944;2023-08-06T02:28:26;96927.88;;;19.79;96.99
63535;BME280;55128;50.230;18.944;2023-08-06T02:33:27;96928.03;;;19.86;96.07
63535;BME280;55128;50.230;18.944;2023-08-06T02:38:27;96917.78;;;19.81;96.66
63535;BME280;55128;50.230;18.944;2023-08-06T02:43:27;96892.53;;;19.74;96.48
63535;BME280;55128;50.230;18.944;2023-08-06T02:48:28;96893.38;;;19.74;97.07
63535;BME280;55128;50.230;18.944;2023-08-06T02:53:28;96892.84;;;19.87;96.32
63535;BME280;55128;50.230;18.944;2023-08-06T02:58:28;96891.38;;;19.76;96.65
63535;BME280;55128;50.230;18.944;2023-08-06T03:03:32;96884.25;;;19.84;95.90
63535;BME280;55128;50.230;18.944;2023-08-06T03:08:33;96872.31;;;19.78;96.01
63535;BME280;55128;50.230;18.944;2023-08-06T03:13:33;96867.44;;;19.65;97.71
63535;BME280;55128;50.230;18.944;2023-08-06T03:18:34;96866.94;;;19.70;97.26
63535;BME280;55128;50.230;18.944;2023-08-06T03:23:34;96861.38;;;19.63;97.55
63535;BME280;55128;50.230;18.944;2023-08-06T03:28:34;96857.69;;;19.72;97.40
63535;BME280;55128;50.230;18.944;2023-08-06T03:33:35;96863.75;;;19.83;96.75
63535;BME280;55128;50.230;18.944;2023-08-06T03:38:35;96865.09;;;19.62;97.94
63535;BME280;55128;50.230;18.944;2023-08-06T03:43:35;96859.91;;;19.77;97.54
63535;BME280;55128;50.230;18.944;2023-08-06T03:48:36;96837.00;;;19.81;97.21
63535;BME280;55128;50.230;18.944;2023-08-06T03:53:36;96831.78;;;19.79;97.59
63535;BME280;55128;50.230;18.944;2023-08-06T03:58:36;96842.84;;;19.93;97.07
63535;BME280;55128;50.230;18.944;2023-08-06T04:03:37;96842.22;;;19.83;97.10
63535;BME280;55128;50.230;18.944;2023-08-06T04:08:37;96840.19;;;19.68;97.55
63535;BME280;55128;50.230;18.944;2023-08-06T04:13:37;96835.28;;;19.72;98.09
63535;BME280;55128;50.230;18.944;2023-08-06T04:18:38;96833.63;;;19.71;98.24
63535;BME280;55128;50.230;18.944;2023-08-06T04:23:38;96828.91;;;19.81;97.24
63535;BME280;55128;50.230;18.944;2023-08-06T04:28:38;96828.09;;;19.80;97.84
63535;BME280;55128;50.230;18.944;2023-08-06T04:33:39;96822.00;;;19.87;97.46
63535;BME280;55128;50.230;18.944;2023-08-06T04:38:39;96802.13;;;19.88;97.34
63535;BME280;55128;50.230;18.944;2023-08-06T04:43:41;96791.00;;;19.91;97.82
63535;BME280;55128;50.230;18.944;2023-08-06T04:48:41;96797.97;;;20.08;96.79
63535;BME280;55128;50.230;18.944;2023-08-06T04:53:42;96794.53;;;19.91;98.15
63535;BME280;55128;50.230;18.944;2023-08-06T04:58:42;96802.25;;;19.94;96.75
63535;BME280;55128;50.230;18.944;2023-08-06T05:03:42;96797.44;;;19.81;96.51
63535;BME280;55128;50.230;18.944;2023-08-06T05:08:43;96801.72;;;19.43;96.04
63535;BME280;55128;50.230;18.944;2023-08-06T05:13:43;96786.41;;;19.43;95.08
63535;BME280;55128;50.230;18.944;2023-08-06T05:18:43;96781.22;;;19.26;96.07
63535;BME280;55128;50.230;18.944;2023-08-06T05:23:44;96767.47;;;19.20;95.81
63535;BME280;55128;50.230;18.944;2023-08-06T05:28:44;96771.72;;;18.90;94.58
63535;BME280;55128;50.230;18.944;2023-08-06T05:33:45;96760.41;;;18.70;96.18
63535;BME280;55128;50.230;18.944;2023-08-06T05:38:46;96776.75;;;18.85;94.23
63535;BME280;55128;50.230;18.944;2023-08-06T05:43:47;96764.78;;;18.63;95.49
63535;BME280;55128;50.230;18.944;2023-08-06T05:48:47;96755.19;;;18.36;95.87
63535;BME280;55128;50.230;18.944;2023-08-06T05:53:47;96743.75;;;18.25;95.55
63535;BME280;55128;50.230;18.944;2023-08-06T05:58:49;96734.69;;;18.26;94.83
63535;BME280;55128;50.230;18.944;2023-08-06T06:03:53;96732.16;;;18.25;94.61
63535;BME280;55128;50.230;18.944;2023-08-06T06:08:53;96727.94;;;18.14;93.96
63535;BME280;55128;50.230;18.944;2023-08-06T06:13:53;96736.63;;;18.00;93.75
63535;BME280;55128;50.230;18.944;2023-08-06T06:18:54;96719.91;;;17.72;95.10
63535;BME280;55128;50.230;18.944;2023-08-06T06:23:54;96713.69;;;17.63;94.39
63535;BME280;55128;50.230;18.944;2023-08-06T06:28:56;96716.38;;;17.63;94.64
63535;BME280;55128;50.230;18.944;2023-08-06T06:33:56;96717.34;;;17.54;95.36
63535;BME280;55128;50.230;18.944;2023-08-06T06:38:57;96731.72;;;17.44;95.08
63535;BME280;55128;50.230;18.944;2023-08-06T06:43:58;96708.03;;;17.32;95.05
63535;BME280;55128;50.230;18.944;2023-08-06T06:48:58;96685.38;;;17.26;95.46
63535;BME280;55128;50.230;18.944;2023-08-06T06:53:58;96691.38;;;17.20;96.43
63535;BME280;55128;50.230;18.944;2023-08-06T06:58:59;96679.31;;;17.24;95.99
63535;BME280;55128;50.230;18.944;2023-08-06T07:03:59;96661.91;;;17.28;95.39
63535;BME280;55128;50.230;18.944;2023-08-06T07:09:04;96653.19;;;17.34;95.59
63535;BME280;55128;50.230;18.944;2023-08-06T07:14:07;96639.06;;;17.16;95.15
63535;BME280;55128;50.230;18.944;2023-08-06T07:19:10;96662.91;;;16.93;94.27
63535;BME280;55128;50.230;18.944;2023-08-06T07:24:10;96704.06;;;16.83;94.91
63535;BME280;55128;50.230;18.944;2023-08-06T07:29:11;96720.75;;;16.77;94.65
63535;BME280;55128;50.230;18.944;2023-08-06T07:34:12;96739.13;;;16.72;95.00
63535;BME280;55128;50.230;18.944;2023-08-06T07:39:12;96707.44;;;16.67;95.72
63535;BME280;55128;50.230;18.944;2023-08-06T07:44:13;96679.84;;;16.49;95.67
63535;BME280;55128;50.230;18.944;2023-08-06T07:49:13;96712.28;;;16.46;95.58
63535;BME280;55128;50.230;18.944;2023-08-06T07:54:13;96712.66;;;16.51;95.35
63535;BME280;55128;50.230;18.944;2023-08-06T07:59:14;96735.09;;;16.50;95.40
63535;BME280;55128;50.230;18.944;2023-08-06T08:04:14;96713.59;;;16.60;94.86
63535;BME280;55128;50.230;18.944;2023-08-06T08:09:14;96677.47;;;16.46;95.21
63535;BME280;55128;50.230;18.944;2023-08-06T08:14:15;96697.38;;;16.25;95.54
63535;BME280;55128;50.230;18.944;2023-08-06T08:19:15;96730.53;;;16.42;95.63
63535;BME280;55128;50.230;18.944;2023-08-06T08:24:16;96713.25;;;16.63;94.51
63535;BME280;55128;50.230;18.944;2023-08-06T08:29:22;96708.00;;;16.79;93.01
63535;BME280;55128;50.230;18.944;2023-08-06T08:34:23;96694.00;;;16.85;93.35
63535;BME280;55128;50.230;18.944;2023-08-06T08:39:23;96693.59;;;16.98;94.00
63535;BME280;55128;50.230;18.944;2023-08-06T08:44:24;96706.19;;;17.06;92.11
63535;BME280;55128;50.230;18.944;2023-08-06T08:49:28;96719.53;;;17.16;91.96
63535;BME280;55128;50.230;18.944;2023-08-06T08:54:30;96714.06;;;16.99;92.27
63535;BME280;55128;50.230;18.944;2023-08-06T08:59:33;96715.16;;;17.23;91.08
63535;BME280;55128;50.230;18.944;2023-08-06T09:04:34;96706.34;;;17.31;90.31
63535;BME280;55128;50.230;18.944;2023-08-06T09:09:36;96692.72;;;17.24;90.00
63535;BME280;55128;50.230;18.944;2023-08-06T09:14:40;96704.31;;;16.98;90.94
63535;BME280;55128;50.230;18.944;2023-08-06T09:19:43;96701.97;;;16.95;91.19
63535;BME280;55128;50.230;18.944;2023-08-06T09:24:46;96687.19;;;16.91;90.84
63535;BME280;55128;50.230;18.944;2023-08-06T09:29:46;96669.81;;;16.77;91.20
63535;BME280;55128;50.230;18.944;2023-08-06T09:34:46;96684.59;;;16.81;91.02
63535;BME280;55128;50.230;18.944;2023-08-06T09:39:47;96686.34;;;16.90;90.70
63535;BME280;55128;50.230;18.944;2023-08-06T09:44:47;96695.94;;;16.93;90.64
63535;BME280;55128;50.230;18.944;2023-08-06T09:49:47;96691.84;;;17.15;90.46
63535;BME280;55128;50.230;18.944;2023-08-06T09:54:48;96700.00;;;17.05;89.59
63535;BME280;55128;50.230;18.944;2023-08-06T09:59:50;96704.94;;;17.18;89.03
63535;BME280;55128;50.230;18.944;2023-08-06T10:04:52;96704.56;;;16.87;89.53
63535;BME280;55128;50.230;18.944;2023-08-06T10:09:54;96705.09;;;16.90;89.54
63535;BME280;55128;50.230;18.944;2023-08-06T10:14:55;96715.78;;;17.08;89.96
63535;BME280;55128;50.230;18.944;2023-08-06T10:19:58;96719.97;;;17.11;89.69
63535;BME280;55128;50.230;18.944;2023-08-06T10:25:01;96728.03;;;17.11;88.42
63535;BME280;55128;50.230;18.944;2023-08-06T10:35:43;96750.47;;;17.10;88.40
63535;BME280;55128;50.230;18.944;2023-08-06T10:45:53;96749.31;;;17.13;88.62
63535;BME280;55128;50.230;18.944;2023-08-06T10:50:54;96750.38;;;17.20;88.73
63535;BME280;55128;50.230;18.944;2023-08-06T10:55:54;96750.91;;;17.23;88.07
63535;BME280;55128;50.230;18.944;2023-08-06T11:00:55;96742.75;;;17.07;88.76
63535;BME280;55128;50.230;18.944;2023-08-06T11:05:56;96749.63;;;17.09;89.21
63535;BME280;55128;50.230;18.944;2023-08-06T11:11:11;96767.44;;;17.19;88.51
63535;BME280;55128;50.230;18.944;2023-08-06T11:16:14;96783.94;;;17.06;89.17
63535;BME280;55128;50.230;18.944;2023-08-06T11:21:19;96780.13;;;17.08;89.01
63535;BME280;55128;50.230;18.944;2023-08-06T11:26:22;96779.13;;;17.09;88.49
63535;BME280;55128;50.230;18.944;2023-08-06T11:31:23;96790.31;;;17.05;88.59
63535;BME280;55128;50.230;18.944;2023-08-06T11:36:34;96773.72;;;17.27;88.56
63535;BME280;55128;50.230;18.944;2023-08-06T11:41:36;96775.69;;;17.52;87.91
63535;BME280;55128;50.230;18.944;2023-08-06T11:46:53;96782.09;;;17.59;86.77
63535;BME280;55128;50.230;18.944;2023-08-06T11:51:55;96787.03;;;17.45;86.84
63535;BME280;55128;50.230;18.944;2023-08-06T11:56:56;96782.09;;;17.59;87.26
63535;BME280;55128;50.230;18.944;2023-08-06T12:01:56;96783.84;;;17.76;86.26
63535;BME280;55128;50.230;18.944;2023-08-06T12:07:04;96792.53;;;17.96;85.77
63535;BME280;55128;50.230;18.944;2023-08-06T12:12:06;96808.53;;;17.80;86.20
63535;BME280;55128;50.230;18.944;2023-08-06T12:17:06;96818.50;;;17.87;85.95
63535;BME280;55128;50.230;18.944;2023-08-06T12:22:06;96812.69;;;17.74;86.28
63535;BME280;55128;50.230;18.944;2023-08-06T12:27:07;96825.22;;;17.92;85.92
63535;BME280;55128;50.230;18.944;2023-08-06T12:32:07;96824.09;;;18.11;86.06
63535;BME280;55128;50.230;18.944;2023-08-06T12:37:08;96837.88;;;18.08;84.90
63535;BME280;55128;50.230;18.944;2023-08-06T12:42:08;96830.28;;;18.03;84.37
63535;BME280;55128;50.230;18.944;2023-08-06T12:47:10;96835.81;;;17.67;85.73
63535;BME280;55128;50.230;18.944;2023-08-06T12:52:10;96836.88;;;18.09;85.25
63535;BME280;55128;50.230;18.944;2023-08-06T12:57:12;96827.78;;;17.75;83.55
63535;BME280;55128;50.230;18.944;2023-08-06T13:02:13;96827.63;;;17.77;85.21
63535;BME280;55128;50.230;18.944;2023-08-06T13:07:13;96833.66;;;18.05;84.65
63535;BME280;55128;50.230;18.944;2023-08-06T13:12:14;96832.38;;;18.17;84.12
63535;BME280;55128;50.230;18.944;2023-08-06T13:17:14;96827.84;;;18.26;84.12
63535;BME280;55128;50.230;18.944;2023-08-06T13:22:14;96824.25;;;18.68;82.73
63535;BME280;55128;50.230;18.944;2023-08-06T13:27:15;96838.69;;;18.59;82.83
63535;BME280;55128;50.230;18.944;2023-08-06T13:32:15;96842.72;;;18.55;83.22
63535;BME280;55128;50.230;18.944;2023-08-06T13:37:15;96853.41;;;18.30;83.07
63535;BME280;55128;50.230;18.944;2023-08-06T13:42:15;96858.41;;;18.25;83.60
63535;BME280;55128;50.230;18.944;2023-08-06T13:47:16;96869.81;;;18.19;83.55
63535;BME280;55128;50.230;18.944;2023-08-06T13:52:16;96866.94;;;18.20;84.46
63535;BME280;55128;50.230;18.944;2023-08-06T13:57:17;96870.53;;;18.37;82.68
63535;BME280;55128;50.230;18.944;2023-08-06T14:02:20;96874.44;;;18.51;82.01
63535;BME280;55128;50.230;18.944;2023-08-06T14:07:20;96867.84;;;18.37;83.34
63535;BME280;55128;50.230;18.944;2023-08-06T14:12:21;96869.22;;;18.50;82.27
63535;BME280;55128;50.230;18.944;2023-08-06T14:17:21;96874.09;;;18.54;83.42
63535;BME280;55128;50.230;18.944;2023-08-06T14:22:22;96895.00;;;18.26;83.06
63535;BME280;55128;50.230;18.944;2023-08-06T14:27:22;96913.34;;;18.39;82.15
63535;BME280;55128;50.230;18.944;2023-08-06T14:32:23;96910.25;;;18.17;83.41
63535;BME280;55128;50.230;18.944;2023-08-06T14:37:23;96919.69;;;18.21;83.37
63535;BME280;55128;50.230;18.944;2023-08-06T14:42:23;96931.25;;;17.87;84.25
63535;BME280;55128;50.230;18.944;2023-08-06T14:47:24;96939.91;;;17.81;85.26
63535;BME280;55128;50.230;18.944;2023-08-06T14:52:24;96946.56;;;17.77;85.31
63535;BME280;55128;50.230;18.944;2023-08-06T14:57:24;96943.63;;;18.15;85.55
63535;BME280;55128;50.230;18.944;2023-08-06T15:02:31;96939.41;;;18.04;83.90
63535;BME280;55128;50.230;18.944;2023-08-06T15:07:31;96941.88;;;17.97;84.50
63535;BME280;55128;50.230;18.944;2023-08-06T15:12:35;96932.78;;;17.72;83.46
63535;BME280;55128;50.230;18.944;2023-08-06T15:17:35;96933.78;;;17.71;83.84
63535;BME280;55128;50.230;18.944;2023-08-06T15:22:36;96937.28;;;17.72;84.13
63535;BME280;55128;50.230;18.944;2023-08-06T15:27:36;96943.25;;;17.57;83.93
63535;BME280;55128;50.230;18.944;2023-08-06T15:32:37;96938.81;;;17.48;84.13
63535;BME280;55128;50.230;18.944;2023-08-06T15:37:37;96950.88;;;17.44;84.25
63535;BME280;55128;50.230;18.944;2023-08-06T15:42:37;96959.06;;;17.42;83.86
63535;BME280;55128;50.230;18.944;2023-08-06T15:47:38;96977.50;;;17.45;83.83
63535;BME280;55128;50.230;18.944;2023-08-06T15:52:40;96988.47;;;17.34;83.88
63535;BME280;55128;50.230;18.944;2023-08-06T15:57:40;96993.84;;;17.16;83.46
63535;BME280;55128;50.230;18.944;2023-08-06T16:02:41;97007.34;;;17.06;83.76
63535;BME280;55128;50.230;18.944;2023-08-06T16:07:41;97014.78;;;17.31;83.89
63535;BME280;55128;50.230;18.944;2023-08-06T16:12:41;97029.81;;;17.23;85.06
63535;BME280;55128;50.230;18.944;2023-08-06T16:17:42;97041.44;;;17.14;84.63
63535;BME280;55128;50.230;18.944;2023-08-06T16:22:42;97052.19;;;16.86;85.72
63535;BME280;55128;50.230;18.944;2023-08-06T16:27:43;97064.22;;;16.63;88.39
63535;BME280;55128;50.230;18.944;2023-08-06T16:32:43;97063.72;;;16.59;86.67
63535;BME280;55128;50.230;18.944;2023-08-06T16:37:45;97069.22;;;16.58;87.38
63535;BME280;55128;50.230;18.944;2023-08-06T16:42:47;97076.94;;;16.61;86.33
63535;BME280;55128;50.230;18.944;2023-08-06T16:47:47;97073.59;;;16.49;86.14
63535;BME280;55128;50.230;18.944;2023-08-06T16:52:49;97084.94;;;16.33;85.78
63535;BME280;55128;50.230;18.944;2023-08-06T16:57:49;97089.16;;;16.26;86.16
63535;BME280;55128;50.230;18.944;2023-08-06T17:02:49;97094.63;;;16.34;84.98
63535;BME280;55128;50.230;18.944;2023-08-06T17:07:50;97109.88;;;16.14;85.54
63535;BME280;55128;50.230;18.944;2023-08-06T17:12:52;97110.59;;;16.26;86.17
63535;BME280;55128;50.230;18.944;2023-08-06T17:17:53;97114.09;;;16.36;86.78
63535;BME280;55128;50.230;18.944;2023-08-06T17:22:53;97107.88;;;16.36;86.36
63535;BME280;55128;50.230;18.944;2023-08-06T17:27:54;97113.94;;;16.38;85.24
63535;BME280;55128;50.230;18.944;2023-08-06T17:32:54;97117.06;;;16.23;85.48
63535;BME280;55128;50.230;18.944;2023-08-06T17:37:55;97125.63;;;16.37;86.11
63535;BME280;55128;50.230;18.944;2023-08-06T17:42:58;97118.03;;;16.32;85.68
63535;BME280;55128;50.230;18.944;2023-08-06T17:47:58;97125.41;;;16.10;86.48
63535;BME280;55128;50.230;18.944;2023-08-06T17:52:58;97127.78;;;16.23;85.75
63535;BME280;55128;50.230;18.944;2023-08-06T17:57:59;97129.34;;;16.16;86.18
63535;BME280;55128;50.230;18.944;2023-08-06T18:02:59;97141.03;;;16.25;85.32
63535;BME280;55128;50.230;18.944;2023-08-06T18:08:00;97154.13;;;16.08;86.47
63535;BME280;55128;50.230;18.944;2023-08-06T18:13:00;97149.34;;;16.12;86.79
63535;BME280;55128;50.230;18.944;2023-08-06T18:18:00;97150.34;;;16.01;87.21
63535;BME280;55128;50.230;18.944;2023-08-06T18:23:01;97142.31;;;16.11;86.39
63535;BME280;55128;50.230;18.944;2023-08-06T18:28:02;97147.81;;;15.90;87.07
63535;BME280;55128;50.230;18.944;2023-08-06T18:33:03;97152.59;;;15.86;86.93
63535;BME280;55128;50.230;18.944;2023-08-06T18:38:06;97144.59;;;15.86;87.02
63535;BME280;55128;50.230;18.944;2023-08-06T18:43:07;97150.19;;;15.83;87.71
63535;BME280;55128;50.230;18.944;2023-08-06T18:48:10;97142.28;;;15.62;88.45
63535;BME280;55128;50.230;18.944;2023-08-06T18:53:11;97132.53;;;15.61;89.22
63535;BME280;55128;50.230;18.944;2023-08-06T18:58:12;97133.69;;;15.68;88.77
63535;BME280;55128;50.230;18.944;2023-08-06T19:03:15;97147.31;;;15.65;88.84
63535;BME280;55128;50.230;18.944;2023-08-06T19:08:16;97156.34;;;15.45;89.63
63535;BME280;55128;50.230;18.944;2023-08-06T19:13:16;97146.75;;;15.52;89.47
63535;BME280;55128;50.230;18.944;2023-08-06T19:18:17;97157.31;;;15.53;89.71
63535;BME280;55128;50.230;18.944;2023-08-06T19:23:17;97152.66;;;15.46;90.62
63535;BME280;55128;50.230;18.944;2023-08-06T19:28:19;97166.34;;;15.52;90.08
63535;BME280;55128;50.230;18.944;2023-08-06T19:33:20;97167.75;;;15.47;90.18
63535;BME280;55128;50.230;18.944;2023-08-06T19:38:22;97177.09;;;15.31;91.31
63535;BME280;55128;50.230;18.944;2023-08-06T19:43:23;97172.50;;;15.43;90.88
63535;BME280;55128;50.230;18.944;2023-08-06T19:48:23;97173.31;;;15.24;91.60
63535;BME280;55128;50.230;18.944;2023-08-06T19:53:24;97174.28;;;15.33;91.64
63535;BME280;55128;50.230;18.944;2023-08-06T19:58:27;97176.16;;;15.42;90.68
63535;BME280;55128;50.230;18.944;2023-08-06T20:03:28;97186.28;;;15.48;91.05
63535;BME280;55128;50.230;18.944;2023-08-06T20:08:32;97169.66;;;15.35;91.31
63535;BME280;55128;50.230;18.944;2023-08-06T20:13:32;97172.22;;;15.46;91.40
63535;BME280;55128;50.230;18.944;2023-08-06T20:18:33;97176.59;;;15.57;91.13
63535;BME280;55128;50.230;18.944;2023-08-06T20:23:33;97182.09;;;15.55;91.22
63535;BME280;55128;50.230;18.944;2023-08-06T20:28:34;97176.97;;;15.33;91.98
63535;BME280;55128;50.230;18.944;2023-08-06T20:33:34;97169.50;;;15.27;91.85
63535;BME280;55128;50.230;18.944;2023-08-06T20:38:35;97167.91;;;15.14;92.24
63535;BME280;55128;50.230;18.944;2023-08-06T20:43:36;97170.22;;;15.29;91.18
63535;BME280;55128;50.230;18.944;2023-08-06T20:48:36;97177.53;;;15.27;91.35
63535;BME280;55128;50.230;18.944;2023-08-06T20:53:37;97185.09;;;15.22;90.88
63535;BME280;55128;50.230;18.944;2023-08-06T20:58:37;97177.38;;;15.19;90.92
63535;BME280;55128;50.230;18.944;2023-08-06T21:03:37;97176.81;;;15.25;89.91
63535;BME280;55128;50.230;18.944;2023-08-06T21:08:38;97166.50;;;15.20;90.43
63535;BME280;55128;50.230;18.944;2023-08-06T21:13:38;97175.19;;;15.03;91.58
63535;BME280;55128;50.230;18.944;2023-08-06T21:18:39;97193.09;;;15.12;91.72
63535;BME280;55128;50.230;18.944;2023-08-06T21:23:39;97198.88;;;15.17;91.20
63535;BME280;55128;50.230;18.944;2023-08-06T21:28:41;97182.97;;;15.15;91.45
63535;BME280;55128;50.230;18.944;2023-08-06T21:33:41;97182.94;;;15.06;91.59
63535;BME280;55128;50.230;18.944;2023-08-06T21:38:42;97176.91;;;15.13;91.51
63535;BME280;55128;50.230;18.944;2023-08-06T21:48:45;97166.22;;;15.13;92.42
63535;BME280;55128;50.230;18.944;2023-08-06T21:53:47;97167.88;;;15.05;93.12
63535;BME280;55128;50.230;18.944;2023-08-06T21:58:49;97171.81;;;15.10;93.01
63535;BME280;55128;50.230;18.944;2023-08-06T22:03:50;97174.38;;;15.12;92.54
63535;BME280;55128;50.230;18.944;2023-08-06T22:08:50;97183.09;;;15.14;91.91
63535;BME280;55128;50.230;18.944;2023-08-06T22:13:53;97184.50;;;15.18;92.35
63535;BME280;55128;50.230;18.944;2023-08-06T22:18:53;97190.72;;;15.19;92.37
63535;BME280;55128;50.230;18.944;2023-08-06T22:23:54;97182.31;;;15.33;91.86
63535;BME280;55128;50.230;18.944;2023-08-06T22:28:54;97188.34;;;15.25;91.88
63535;BME280;55128;50.230;18.944;2023-08-06T22:33:54;97180.06;;;15.28;92.19
63535;BME280;55128;50.230;18.944;2023-08-06T22:38:55;97184.72;;;15.36;91.75
63535;BME280;55128;50.230;18.944;2023-08-06T22:43:55;97189.38;;;15.34;91.59
63535;BME280;55128;50.230;18.944;2023-08-06T22:48:55;97181.22;;;15.35;90.76
63535;BME280;55128;50.230;18.944;2023-08-06T22:53:56;97183.13;;;15.24;91.97
63535;BME280;55128;50.230;18.944;2023-08-06T22:58:56;97197.38;;;15.24;91.70
63535;BME280;55128;50.230;18.944;2023-08-06T23:03:56;97199.78;;;15.37;91.48
63535;BME280;55128;50.230;18.944;2023-08-06T23:08:57;97204.25;;;15.27;91.54
63535;BME280;55128;50.230;18.944;2023-08-06T23:13:57;97219.47;;;15.26;91.63
63535;BME280;55128;50.230;18.944;2023-08-06T23:18:57;97211.03;;;15.31;91.77
63535;BME280;55128;50.230;18.944;2023-08-06T23:23:58;97228.34;;;15.36;91.34
63535;BME280;55128;50.230;18.944;2023-08-06T23:28:58;97232.16;;;15.34;91.31
63535;BME280;55128;50.230;18.944;2023-08-06T23:33:59;97232.41;;;15.31;91.40
63535;BME280;55128;50.230;18.944;2023-08-06T23:38:59;97233.25;;;15.31;91.16
63535;BME280;55128;50.230;18.944;2023-08-06T23:43:59;97236.13;;;15.49;90.66
63535;BME280;55128;50.230;18.944;2023-08-06T23:49:00;97240.84;;;15.26;91.30
63535;BME280;55128;50.230;18.944;2023-08-06T23:54:00;97231.69;;;15.29;91.42
63535;BME280;55128;50.230;18.944;2023-08-06T23:59:00;97231.59;;;15.40;90.97
